createdAt,value
2018-01-27T00:00:31.648Z,8.34
2018-01-27T00:01:46.080Z,8.45
2018-01-27T00:02:31.986Z,8.44
2018-01-27T00:03:31.175Z,8.41
2018-01-27T00:04:31.723Z,8.45
2018-01-27T00:05:31.733Z,8.43
2018-01-27T00:06:31.754Z,8.38
2018-01-27T00:07:46.594Z,8.43
2018-01-27T00:08:31.280Z,8.41
2018-01-27T00:09:31.786Z,8.44
2018-01-27T00:10:31.810Z,8.37
2018-01-27T00:11:31.848Z,8.38
2018-01-27T00:12:31.849Z,8.33
2018-01-27T00:13:32.029Z,8.44
2018-01-27T00:14:31.880Z,8.44
2018-01-27T00:15:31.913Z,8.37
2018-01-27T00:16:31.945Z,8.4
2018-01-27T00:17:31.698Z,8.44
2018-01-27T00:18:32.064Z,8.45
2018-01-27T00:19:31.718Z,8.44
2018-01-27T00:20:31.994Z,8.45
2018-01-27T00:21:32.003Z,8.41
2018-01-27T00:22:46.703Z,8.36
2018-01-27T00:23:32.054Z,8.41
2018-01-27T00:24:32.070Z,8.44
2018-01-27T00:25:32.069Z,8.44
2018-01-27T00:26:31.855Z,8.44
2018-01-27T00:27:31.955Z,8.38
2018-01-27T00:28:32.341Z,8.38
2018-01-27T00:29:31.915Z,8.33
2018-01-27T00:30:32.184Z,8.26
2018-01-27T00:31:32.205Z,8.26
2018-01-27T00:32:32.219Z,8.26
2018-01-27T00:33:32.503Z,8.4
2018-01-27T00:34:32.409Z,8.37
2018-01-27T00:35:32.275Z,8.33
2018-01-27T00:36:32.272Z,8.28
2018-01-27T00:37:32.472Z,8.36
2018-01-27T00:38:32.129Z,8.41
2018-01-27T00:39:32.089Z,8.36
2018-01-27T00:40:32.351Z,8.4
2018-01-27T00:41:32.381Z,8.43
2018-01-27T00:42:32.140Z,8.33
2018-01-27T00:43:32.418Z,8.34
2018-01-27T00:44:32.428Z,8.44
2018-01-27T00:45:32.286Z,8.41
2018-01-27T00:46:32.472Z,8.3
2018-01-27T00:47:32.233Z,8.43
2018-01-27T00:48:32.485Z,8.36
2018-01-27T00:49:32.682Z,8.43
2018-01-27T00:50:32.555Z,8.37
2018-01-27T00:51:32.558Z,8.33
2018-01-27T00:52:32.586Z,8.36
2018-01-27T00:53:32.602Z,8.38
2018-01-27T00:54:47.284Z,8.37
2018-01-27T00:55:32.640Z,8.29
2018-01-27T00:56:32.391Z,8.36
2018-01-27T00:57:32.831Z,8.3
2018-01-27T00:58:47.353Z,8.25
2018-01-27T00:59:32.447Z,8.37
2018-01-27T01:01:32.733Z,8.43
2018-01-27T01:02:47.514Z,8.4
2018-01-27T01:03:32.786Z,8.38
2018-01-27T01:04:32.644Z,8.37
2018-01-27T01:05:32.825Z,8.4
2018-01-27T01:06:32.825Z,8.33
2018-01-27T01:07:47.666Z,8.37
2018-01-27T01:08:47.683Z,8.41
2018-01-27T01:09:32.881Z,8.29
2018-01-27T01:10:47.576Z,8.38
2018-01-27T01:11:32.665Z,8.28
2018-01-27T01:12:32.699Z,8.37
2018-01-27T01:13:47.626Z,8.22
2018-01-27T01:14:32.814Z,8.2
2018-01-27T01:15:32.735Z,8.23
2018-01-27T01:16:32.999Z,8.29
2018-01-27T01:17:47.709Z,8.2
2018-01-27T01:18:33.100Z,8.25
2018-01-27T01:19:33.195Z,8.29
2018-01-27T01:20:33.084Z,8.28
2018-01-27T01:21:33.188Z,8.28
2018-01-27T01:22:33.269Z,8.28
2018-01-27T01:23:33.128Z,8.28
2018-01-27T01:24:33.145Z,8.2
2018-01-27T01:25:33.186Z,8.22
2018-01-27T01:26:48.015Z,8.25
2018-01-27T01:27:33.364Z,8.18
2018-01-27T01:28:32.957Z,8.26
2018-01-27T01:29:33.245Z,8.26
2018-01-27T01:30:32.995Z,8.22
2018-01-27T01:31:33.027Z,8.23
2018-01-27T01:32:33.088Z,8.11
2018-01-27T01:33:33.060Z,8.25
2018-01-27T01:34:33.085Z,8.15
2018-01-27T01:36:33.365Z,8.05
2018-01-27T01:37:33.525Z,8.11
2018-01-27T01:38:48.084Z,8.1
2018-01-27T01:39:33.681Z,8.07
2018-01-27T01:41:33.474Z,8.12
2018-01-27T01:42:48.152Z,8.08
2018-01-27T01:43:33.484Z,8.07
2018-01-27T01:44:33.605Z,8.08
2018-01-27T01:45:33.551Z,8.1
2018-01-27T01:46:33.652Z,8.07
2018-01-27T01:47:33.717Z,8.04
2018-01-27T01:48:33.590Z,8.16
2018-01-27T01:49:33.585Z,8.12
2018-01-27T01:50:33.817Z,8.1
2018-01-27T01:51:33.728Z,8.12
2018-01-27T01:54:33.678Z,8.23
2018-01-27T01:55:33.469Z,8.18
2018-01-27T01:56:33.882Z,8.18
2018-01-27T01:57:48.518Z,8.22
2018-01-27T01:58:33.763Z,8.23
2018-01-27T01:59:33.780Z,8.19
2018-01-27T02:00:33.815Z,8.2
2018-01-27T02:01:33.817Z,8.22
2018-01-27T02:03:33.863Z,8.22
2018-01-27T02:04:33.878Z,8.15
2018-01-27T02:05:33.893Z,8.26
2018-01-27T02:07:33.932Z,8.23
2018-01-27T02:08:33.964Z,8.25
2018-01-27T02:09:34.061Z,8.16
2018-01-27T02:10:48.811Z,8.15
2018-01-27T02:11:33.755Z,8.15
2018-01-27T02:12:48.690Z,8.1
2018-01-27T02:13:34.022Z,8.12
2018-01-27T02:14:34.141Z,8.05
2018-01-27T02:15:34.077Z,8.07
2018-01-27T02:16:33.836Z,8.02
2018-01-27T02:17:34.265Z,8.04
2018-01-27T02:18:34.024Z,8.04
2018-01-27T02:19:34.120Z,8.11
2018-01-27T02:20:34.154Z,8.08
2018-01-27T02:21:33.918Z,8.11
2018-01-27T02:22:34.204Z,8.1
2018-01-27T02:23:34.228Z,7.98
2018-01-27T02:24:49.005Z,8.04
2018-01-27T02:25:34.250Z,8.01
2018-01-27T02:26:33.915Z,7.98
2018-01-27T02:27:48.939Z,8.02
2018-01-27T02:28:34.304Z,7.98
2018-01-27T02:29:48.998Z,8
2018-01-27T02:30:34.444Z,8.02
2018-01-27T02:31:34.517Z,8.01
2018-01-27T02:32:34.113Z,7.98
2018-01-27T02:34:34.403Z,7.93
2018-01-27T02:35:34.580Z,8
2018-01-27T02:36:34.591Z,7.97
2018-01-27T02:37:34.470Z,8
2018-01-27T02:38:34.487Z,8
2018-01-27T02:40:34.510Z,7.97
2018-01-27T02:41:34.281Z,7.93
2018-01-27T02:42:49.234Z,7.97
2018-01-27T02:43:34.316Z,7.92
2018-01-27T02:44:49.404Z,7.85
2018-01-27T02:45:49.366Z,7.95
2018-01-27T02:46:34.631Z,7.93
2018-01-27T02:47:34.655Z,8.01
2018-01-27T02:48:34.400Z,7.9
2018-01-27T02:49:34.673Z,7.97
2018-01-27T02:50:34.710Z,8.05
2018-01-27T02:51:34.449Z,7.95
2018-01-27T02:52:34.923Z,8.08
2018-01-27T02:53:34.902Z,7.95
2018-01-27T02:54:49.432Z,7.92
2018-01-27T02:55:34.805Z,7.9
2018-01-27T02:56:34.820Z,7.89
2018-01-27T02:57:34.822Z,7.86
2018-01-27T02:58:34.820Z,7.86
2018-01-27T02:59:34.598Z,7.93
2018-01-27T03:00:34.609Z,7.82
2018-01-27T03:01:49.559Z,7.93
2018-01-27T03:02:34.891Z,8.01
2018-01-27T03:03:35.080Z,7.85
2018-01-27T03:04:34.922Z,7.92
2018-01-27T03:05:49.628Z,7.83
2018-01-27T03:06:34.962Z,7.85
2018-01-27T03:07:35.002Z,7.85
2018-01-27T03:08:34.848Z,7.92
2018-01-27T03:10:35.049Z,7.89
2018-01-27T03:11:35.223Z,7.86
2018-01-27T03:12:35.096Z,7.92
2018-01-27T03:13:35.090Z,7.86
2018-01-27T03:14:35.117Z,7.85
2018-01-27T03:15:35.139Z,7.87
2018-01-27T03:17:50.012Z,7.93
2018-01-27T03:18:35.179Z,7.86
2018-01-27T03:19:35.327Z,7.86
2018-01-27T03:20:35.221Z,8.02
2018-01-27T03:21:35.257Z,8.02
2018-01-27T03:22:35.267Z,7.98
2018-01-27T03:23:35.287Z,7.95
2018-01-27T03:24:35.438Z,7.86
2018-01-27T03:25:35.223Z,7.83
2018-01-27T03:26:35.331Z,8
2018-01-27T03:28:35.360Z,7.98
2018-01-27T03:29:35.235Z,8
2018-01-27T03:31:35.164Z,7.97
2018-01-27T03:32:49.864Z,7.95
2018-01-27T03:33:35.461Z,8
2018-01-27T03:34:35.326Z,8.01
2018-01-27T03:35:35.499Z,7.95
2018-01-27T03:36:35.253Z,7.97
2018-01-27T03:37:35.264Z,8.05
2018-01-27T03:38:50.213Z,8.08
2018-01-27T03:39:35.298Z,8.08
2018-01-27T03:40:35.321Z,8.08
2018-01-27T03:41:35.748Z,8.02
2018-01-27T03:42:35.369Z,8.12
2018-01-27T03:43:35.645Z,8.07
2018-01-27T03:44:35.790Z,8.07
2018-01-27T03:45:35.414Z,8.1
2018-01-27T03:46:35.842Z,7.95
2018-01-27T03:47:35.688Z,7.97
2018-01-27T03:48:35.883Z,8.04
2018-01-27T03:49:50.166Z,8.04
2018-01-27T03:50:35.755Z,7.93
2018-01-27T03:51:35.676Z,7.86
2018-01-27T03:52:35.795Z,7.79
2018-01-27T03:53:35.561Z,7.89
2018-01-27T03:54:35.920Z,7.9
2018-01-27T03:55:35.857Z,7.9
2018-01-27T03:56:35.861Z,7.9
2018-01-27T03:57:35.637Z,7.97
2018-01-27T03:58:35.892Z,7.93
2018-01-27T03:59:35.929Z,7.87
2018-01-27T04:01:35.979Z,7.82
2018-01-27T04:02:35.981Z,7.8
2018-01-27T04:03:35.487Z,7.89
2018-01-27T04:04:50.826Z,7.8
2018-01-27T04:05:36.124Z,7.89
2018-01-27T04:06:36.045Z,7.89
2018-01-27T04:07:50.474Z,7.87
2018-01-27T04:08:35.831Z,7.93
2018-01-27T04:09:36.097Z,7.9
2018-01-27T04:10:36.203Z,7.92
2018-01-27T04:11:36.279Z,7.97
2018-01-27T04:13:36.278Z,8
2018-01-27T04:14:36.186Z,8.04
2018-01-27T04:15:36.195Z,7.9
2018-01-27T04:17:36.244Z,8.1
2018-01-27T04:18:36.013Z,7.98
2018-01-27T04:19:36.365Z,8.04
2018-01-27T04:20:50.967Z,8.05
2018-01-27T04:21:36.211Z,8
2018-01-27T04:22:36.395Z,8.01
2018-01-27T04:23:36.107Z,7.98
2018-01-27T04:24:36.380Z,7.86
2018-01-27T04:25:36.135Z,7.95
2018-01-27T04:26:36.414Z,8
2018-01-27T04:27:36.562Z,8.04
2018-01-27T04:28:35.923Z,8.04
2018-01-27T04:29:36.457Z,8.02
2018-01-27T04:30:36.469Z,7.95
2018-01-27T04:31:36.582Z,7.97
2018-01-27T04:32:36.612Z,7.86
2018-01-27T04:33:36.673Z,7.89
2018-01-27T04:34:36.545Z,7.92
2018-01-27T04:35:51.231Z,7.89
2018-01-27T04:36:51.258Z,7.85
2018-01-27T04:37:36.349Z,7.92
2018-01-27T04:38:36.608Z,7.87
2018-01-27T04:39:36.383Z,7.83
2018-01-27T04:40:36.646Z,7.82
2018-01-27T04:41:36.506Z,7.86
2018-01-27T04:43:36.714Z,7.72
2018-01-27T04:44:36.458Z,7.75
2018-01-27T04:45:36.736Z,7.75
2018-01-27T04:46:36.764Z,7.83
2018-01-27T04:47:36.518Z,7.93
2018-01-27T04:48:36.954Z,7.8
2018-01-27T04:49:36.541Z,7.85
2018-01-27T04:50:36.574Z,7.86
2018-01-27T04:51:51.667Z,7.87
2018-01-27T04:52:51.695Z,7.87
2018-01-27T04:53:36.885Z,7.92
2018-01-27T04:54:36.905Z,7.9
2018-01-27T04:55:36.906Z,7.87
2018-01-27T04:56:36.930Z,7.83
2018-01-27T04:57:36.784Z,7.77
2018-01-27T04:58:36.974Z,7.82
2018-01-27T04:59:37.017Z,7.57
2018-01-27T05:00:36.750Z,7.67
2018-01-27T05:01:51.703Z,7.67
2018-01-27T05:02:36.935Z,7.69
2018-01-27T05:03:37.053Z,7.61
2018-01-27T05:04:36.981Z,7.72
2018-01-27T05:05:37.240Z,7.6
2018-01-27T05:06:37.111Z,7.61
2018-01-27T05:07:51.799Z,7.57
2018-01-27T05:08:36.894Z,7.64
2018-01-27T05:09:36.998Z,7.57
2018-01-27T05:10:37.345Z,7.58
2018-01-27T05:11:36.945Z,7.55
2018-01-27T05:12:37.207Z,7.61
2018-01-27T05:13:37.246Z,7.55
2018-01-27T05:14:36.993Z,7.64
2018-01-27T05:15:37.283Z,7.82
2018-01-27T05:16:37.270Z,7.71
2018-01-27T05:17:37.314Z,7.72
2018-01-27T05:18:51.995Z,7.71
2018-01-27T05:19:37.077Z,7.64
2018-01-27T05:20:37.359Z,7.6
2018-01-27T05:21:37.470Z,7.69
2018-01-27T05:22:37.396Z,7.74
2018-01-27T05:23:37.304Z,7.6
2018-01-27T05:24:37.412Z,7.68
2018-01-27T05:25:37.446Z,7.55
2018-01-27T05:26:37.544Z,7.69
2018-01-27T05:27:37.492Z,7.69
2018-01-27T05:28:37.386Z,7.67
2018-01-27T05:29:37.513Z,7.63
2018-01-27T05:30:37.518Z,7.61
2018-01-27T05:31:37.298Z,7.6
2018-01-27T05:32:37.655Z,7.67
2018-01-27T05:33:37.333Z,7.68
2018-01-27T05:34:37.767Z,7.55
2018-01-27T05:35:37.720Z,7.55
2018-01-27T05:36:52.299Z,7.67
2018-01-27T05:37:37.824Z,7.6
2018-01-27T05:38:37.416Z,7.52
2018-01-27T05:39:52.356Z,7.5
2018-01-27T05:40:37.851Z,7.58
2018-01-27T05:41:37.883Z,7.49
2018-01-27T05:42:37.733Z,7.63
2018-01-27T05:43:37.901Z,7.6
2018-01-27T05:44:37.834Z,7.53
2018-01-27T05:47:52.498Z,7.6
2018-01-27T05:48:52.615Z,7.6
2018-01-27T05:49:52.680Z,7.6
2018-01-27T05:50:37.881Z,7.67
2018-01-27T05:51:37.642Z,7.58
2018-01-27T05:52:37.921Z,7.6
2018-01-27T05:53:37.935Z,7.67
2018-01-27T05:54:38.128Z,7.58
2018-01-27T05:55:52.748Z,7.61
2018-01-27T05:56:37.737Z,7.74
2018-01-27T05:57:38.019Z,7.63
2018-01-27T05:58:38.034Z,7.6
2018-01-27T05:59:37.933Z,7.61
2018-01-27T06:00:38.049Z,7.6
2018-01-27T06:02:38.110Z,7.55
2018-01-27T06:03:37.845Z,7.63
2018-01-27T06:04:37.884Z,7.67
2018-01-27T06:05:38.134Z,7.58
2018-01-27T06:06:38.182Z,7.64
2018-01-27T06:08:38.212Z,7.49
2018-01-27T06:09:38.215Z,7.48
2018-01-27T06:10:52.893Z,7.57
2018-01-27T06:11:52.931Z,7.5
2018-01-27T06:12:38.509Z,7.55
2018-01-27T06:13:38.297Z,7.57
2018-01-27T06:14:38.287Z,7.55
2018-01-27T06:15:38.331Z,7.61
2018-01-27T06:16:38.479Z,7.6
2018-01-27T06:17:38.500Z,7.6
2018-01-27T06:18:38.376Z,7.63
2018-01-27T06:19:38.386Z,7.6
2018-01-27T06:20:38.398Z,7.6
2018-01-27T06:21:38.322Z,7.68
2018-01-27T06:22:38.582Z,7.61
2018-01-27T06:23:38.308Z,7.58
2018-01-27T06:24:53.240Z,7.57
2018-01-27T06:25:38.513Z,7.5
2018-01-27T06:26:38.515Z,7.5
2018-01-27T06:27:53.204Z,7.58
2018-01-27T06:28:38.659Z,7.48
2018-01-27T06:29:53.237Z,7.52
2018-01-27T06:30:38.580Z,7.52
2018-01-27T06:31:38.595Z,7.5
2018-01-27T06:32:38.775Z,7.58
2018-01-27T06:33:38.471Z,7.55
2018-01-27T06:35:38.427Z,7.52
2018-01-27T06:36:38.679Z,7.68
2018-01-27T06:37:38.705Z,7.61
2018-01-27T06:38:38.709Z,7.61
2018-01-27T06:39:38.745Z,7.6
2018-01-27T06:40:38.545Z,7.55
2018-01-27T06:41:38.788Z,7.6
2018-01-27T06:42:53.203Z,7.64
2018-01-27T06:43:38.820Z,7.63
2018-01-27T06:44:38.838Z,7.5
2018-01-27T06:45:39.048Z,7.57
2018-01-27T06:46:38.965Z,7.58
2018-01-27T06:47:38.896Z,7.63
2018-01-27T06:48:38.888Z,7.72
2018-01-27T06:49:38.914Z,7.67
2018-01-27T06:50:38.927Z,7.63
2018-01-27T06:51:39.114Z,7.72
2018-01-27T06:52:38.712Z,7.71
2018-01-27T06:53:38.991Z,7.63
2018-01-27T06:54:39.157Z,7.57
2018-01-27T06:55:39.113Z,7.67
2018-01-27T06:56:39.091Z,7.64
2018-01-27T06:57:39.058Z,7.6
2018-01-27T06:58:39.059Z,7.64
2018-01-27T06:59:39.181Z,7.61
2018-01-27T07:00:39.112Z,7.63
2018-01-27T07:01:38.863Z,7.58
2018-01-27T07:02:38.895Z,7.64
2018-01-27T07:03:39.151Z,7.64
2018-01-27T07:04:39.285Z,7.57
2018-01-27T07:05:39.300Z,7.64
2018-01-27T07:06:39.206Z,7.71
2018-01-27T07:07:53.894Z,7.61
2018-01-27T07:08:38.999Z,7.64
2018-01-27T07:09:39.377Z,7.57
2018-01-27T07:10:39.378Z,7.63
2018-01-27T07:11:39.297Z,7.61
2018-01-27T07:12:39.227Z,7.63
2018-01-27T07:13:39.345Z,7.6
2018-01-27T07:14:54.067Z,7.58
2018-01-27T07:15:39.385Z,7.63
2018-01-27T07:16:39.305Z,7.72
2018-01-27T07:17:39.140Z,7.6
2018-01-27T07:18:54.103Z,7.67
2018-01-27T07:19:39.440Z,7.61
2018-01-27T07:20:54.127Z,7.61
2018-01-27T07:21:39.382Z,7.68
2018-01-27T07:22:39.235Z,7.61
2018-01-27T07:23:39.670Z,7.61
2018-01-27T07:24:39.430Z,7.68
2018-01-27T07:25:39.292Z,7.68
2018-01-27T07:26:53.995Z,7.6
2018-01-27T07:27:39.581Z,7.55
2018-01-27T07:28:39.606Z,7.55
2018-01-27T07:29:39.883Z,7.61
2018-01-27T07:30:54.307Z,7.6
2018-01-27T07:31:39.663Z,7.69
2018-01-27T07:32:39.411Z,7.61
2018-01-27T07:33:39.442Z,7.61
2018-01-27T07:34:39.953Z,7.53
2018-01-27T07:35:39.887Z,7.67
2018-01-27T07:36:39.479Z,7.53
2018-01-27T07:37:39.765Z,7.68
2018-01-27T07:38:39.785Z,7.57
2018-01-27T07:39:39.554Z,7.71
2018-01-27T07:40:39.972Z,7.58
2018-01-27T07:41:39.848Z,7.58
2018-01-27T07:42:54.517Z,7.58
2018-01-27T07:43:39.610Z,7.6
2018-01-27T07:44:39.880Z,7.71
2018-01-27T07:45:40.043Z,7.69
2018-01-27T07:46:54.589Z,7.71
2018-01-27T07:47:39.924Z,7.75
2018-01-27T07:48:39.955Z,7.68
2018-01-27T07:49:39.957Z,7.8
2018-01-27T07:50:39.751Z,7.79
2018-01-27T07:51:54.829Z,7.85
2018-01-27T07:52:40.087Z,7.89
2018-01-27T07:53:40.039Z,7.9
2018-01-27T07:54:40.058Z,7.86
2018-01-27T07:55:40.084Z,7.93
2018-01-27T07:56:40.100Z,7.87
2018-01-27T07:57:40.252Z,7.86
2018-01-27T07:59:54.976Z,7.8
2018-01-27T08:00:39.916Z,7.82
2018-01-27T08:01:40.175Z,7.79
2018-01-27T08:02:54.862Z,7.77
2018-01-27T08:03:40.328Z,7.87
2018-01-27T08:04:39.980Z,7.85
2018-01-27T08:05:40.403Z,7.89
2018-01-27T08:06:40.253Z,7.83
2018-01-27T08:07:40.289Z,7.82
2018-01-27T08:08:40.299Z,7.79
2018-01-27T08:09:40.093Z,7.86
2018-01-27T08:10:40.356Z,7.85
2018-01-27T08:11:40.102Z,7.87
2018-01-27T08:12:40.570Z,7.9
2018-01-27T08:13:40.404Z,7.98
2018-01-27T08:15:40.571Z,8.07
2018-01-27T08:16:40.449Z,8.08
2018-01-27T08:17:55.141Z,8.01
2018-01-27T08:18:40.234Z,7.93
2018-01-27T08:19:40.552Z,7.98
2018-01-27T08:20:40.519Z,7.98
2018-01-27T08:21:40.545Z,7.93
2018-01-27T08:22:40.562Z,7.9
2018-01-27T08:23:40.572Z,7.9
2018-01-27T08:24:40.332Z,7.85
2018-01-27T08:25:40.699Z,7.85
2018-01-27T08:26:55.054Z,7.83
2018-01-27T08:27:40.792Z,7.69
2018-01-27T08:28:40.679Z,7.8
2018-01-27T08:29:55.355Z,7.82
2018-01-27T08:30:55.379Z,7.85
2018-01-27T08:31:40.869Z,7.85
2018-01-27T08:32:40.733Z,7.68
2018-01-27T08:33:40.904Z,7.8
2018-01-27T08:34:40.744Z,7.89
2018-01-27T08:35:55.555Z,7.8
2018-01-27T08:36:41.113Z,7.8
2018-01-27T08:37:40.558Z,7.86
2018-01-27T08:38:40.844Z,7.92
2018-01-27T08:39:40.596Z,7.97
2018-01-27T08:40:40.878Z,8.07
2018-01-27T08:41:41.022Z,8.02
2018-01-27T08:42:41.001Z,8.08
2018-01-27T08:43:40.914Z,8.04
2018-01-27T08:44:40.708Z,8.12
2018-01-27T08:45:40.943Z,8.16
2018-01-27T08:46:40.870Z,8.15
2018-01-27T08:47:40.998Z,7.95
2018-01-27T08:48:40.764Z,8.08
2018-01-27T08:49:55.705Z,8.02
2018-01-27T08:50:41.032Z,8.08
2018-01-27T08:51:41.227Z,8
2018-01-27T08:52:40.871Z,8.01
2018-01-27T08:53:41.102Z,8.15
2018-01-27T08:54:40.882Z,8.26
2018-01-27T08:55:41.137Z,8.25
2018-01-27T08:56:41.160Z,8.26
2018-01-27T08:57:40.922Z,8.36
2018-01-27T08:58:41.192Z,8.44
2018-01-27T08:59:40.947Z,8.41
2018-01-27T09:00:41.240Z,8.33
2018-01-27T09:01:55.919Z,8.48
2018-01-27T09:02:41.283Z,8.3
2018-01-27T09:03:41.431Z,8.43
2018-01-27T09:04:41.051Z,8.44
2018-01-27T09:05:56.081Z,8.55
2018-01-27T09:06:41.092Z,8.55
2018-01-27T09:07:41.357Z,8.52
2018-01-27T09:08:41.369Z,8.52
2018-01-27T09:09:41.389Z,8.41
2018-01-27T09:10:41.300Z,8.47
2018-01-27T09:11:41.423Z,8.5
2018-01-27T09:12:41.206Z,8.53
2018-01-27T09:13:41.470Z,8.5
2018-01-27T09:14:41.229Z,8.52
2018-01-27T09:15:41.514Z,8.5
2018-01-27T09:16:41.521Z,8.56
2018-01-27T09:17:41.632Z,8.61
2018-01-27T09:18:56.238Z,8.73
2018-01-27T09:19:41.562Z,8.73
2018-01-27T09:20:41.610Z,8.62
2018-01-27T09:21:56.419Z,8.68
2018-01-27T09:22:56.045Z,8.74
2018-01-27T09:23:41.639Z,8.74
2018-01-27T09:24:41.162Z,8.79
2018-01-27T09:25:41.833Z,8.84
2018-01-27T09:26:41.812Z,8.91
2018-01-27T09:27:41.465Z,8.94
2018-01-27T09:28:41.879Z,8.98
2018-01-27T09:29:41.752Z,8.99
2018-01-27T09:30:41.782Z,8.91
2018-01-27T09:31:41.796Z,8.8
2018-01-27T09:32:41.811Z,8.71
2018-01-27T09:33:41.997Z,8.56
2018-01-27T09:34:41.839Z,8.62
2018-01-27T09:35:41.864Z,8.63
2018-01-27T09:36:41.874Z,8.65
2018-01-27T09:37:56.565Z,8.61
2018-01-27T09:38:41.931Z,8.7
2018-01-27T09:39:41.694Z,8.66
2018-01-27T09:40:41.689Z,8.61
2018-01-27T09:41:41.972Z,8.81
2018-01-27T09:42:41.826Z,8.74
2018-01-27T09:43:41.760Z,8.77
2018-01-27T09:44:42.182Z,8.7
2018-01-27T09:46:56.742Z,8.79
2018-01-27T09:47:42.087Z,8.79
2018-01-27T09:48:42.095Z,8.83
2018-01-27T09:49:42.147Z,8.73
2018-01-27T09:50:42.134Z,8.79
2018-01-27T09:51:42.181Z,8.79
2018-01-27T09:52:57.017Z,8.7
2018-01-27T09:54:42.230Z,8.91
2018-01-27T09:55:42.251Z,8.81
2018-01-27T09:56:42.006Z,8.81
2018-01-27T09:57:42.268Z,8.74
2018-01-27T09:58:42.190Z,8.8
2018-01-27T09:59:42.314Z,8.83
2018-01-27T10:00:42.325Z,8.92
2018-01-27T10:02:42.112Z,8.83
2018-01-27T10:03:42.529Z,8.83
2018-01-27T10:04:42.308Z,8.84
2018-01-27T10:05:42.166Z,8.84
2018-01-27T10:06:42.426Z,8.91
2018-01-27T10:07:42.478Z,8.99
2018-01-27T10:08:42.494Z,9.1
2018-01-27T10:09:42.507Z,8.99
2018-01-27T10:10:42.611Z,8.95
2018-01-27T10:13:42.564Z,8.84
2018-01-27T10:14:42.336Z,9.04
2018-01-27T10:15:42.769Z,9.01
2018-01-27T10:17:42.657Z,9.13
2018-01-27T10:18:42.686Z,9.24
2018-01-27T10:20:42.686Z,9.18
2018-01-27T10:21:42.862Z,9.23
2018-01-27T10:22:42.753Z,9.23
2018-01-27T10:23:42.767Z,9.24
2018-01-27T10:24:57.437Z,9.15
2018-01-27T10:25:42.796Z,9.18
2018-01-27T10:26:42.969Z,9.26
2018-01-27T10:27:42.585Z,9.18
2018-01-27T10:28:42.856Z,9.1
2018-01-27T10:29:42.848Z,9.2
2018-01-27T10:30:42.887Z,9.24
2018-01-27T10:31:43.077Z,9.33
2018-01-27T10:32:42.929Z,9.33
2018-01-27T10:33:42.945Z,9.38
2018-01-27T10:34:42.973Z,9.35
2018-01-27T10:35:42.720Z,9.4
2018-01-27T10:36:43.009Z,9.36
2018-01-27T10:37:57.702Z,9.39
2018-01-27T10:38:43.032Z,9.42
2018-01-27T10:39:43.060Z,9.32
2018-01-27T10:40:57.744Z,9.46
2018-01-27T10:41:43.199Z,9.4
2018-01-27T10:42:42.992Z,9.4
2018-01-27T10:43:57.903Z,9.42
2018-01-27T10:44:42.894Z,9.46
2018-01-27T10:45:43.350Z,9.47
2018-01-27T10:46:42.933Z,9.48
2018-01-27T10:47:43.207Z,9.46
2018-01-27T10:48:42.961Z,9.5
2018-01-27T10:49:43.348Z,9.47
2018-01-27T10:50:43.145Z,9.47
2018-01-27T10:51:43.283Z,9.32
2018-01-27T10:52:43.288Z,9.33
2018-01-27T10:53:43.324Z,9.43
2018-01-27T10:54:42.832Z,9.38
2018-01-27T10:55:43.528Z,9.36
2018-01-27T10:56:58.189Z,9.36
2018-01-27T10:57:43.401Z,9.38
2018-01-27T10:58:43.550Z,9.36
2018-01-27T10:59:43.442Z,9.21
2018-01-27T11:00:43.590Z,9.2
2018-01-27T11:01:43.215Z,9.08
2018-01-27T11:03:43.252Z,9.08
2018-01-27T11:04:43.272Z,9.01
2018-01-27T11:05:43.645Z,8.94
2018-01-27T11:06:43.726Z,8.89
2018-01-27T11:07:43.070Z,8.62
2018-01-27T11:08:43.103Z,8.59
2018-01-27T11:09:58.299Z,8.59
2018-01-27T11:10:43.648Z,8.62
2018-01-27T11:11:43.399Z,8.55
2018-01-27T11:12:58.358Z,8.52
2018-01-27T11:13:43.872Z,8.61
2018-01-27T11:14:43.866Z,8.65
2018-01-27T11:15:43.464Z,8.68
2018-01-27T11:16:43.504Z,8.61
2018-01-27T11:17:43.677Z,8.47
2018-01-27T11:18:43.778Z,8.44
2018-01-27T11:19:43.999Z,8.48
2018-01-27T11:20:43.811Z,8.3
2018-01-27T11:21:43.859Z,8.4
2018-01-27T11:22:44.003Z,8.36
2018-01-27T11:24:44.059Z,8.34
2018-01-27T11:25:43.937Z,8.34
2018-01-27T11:26:43.676Z,8.34
2018-01-27T11:27:58.643Z,8.37
2018-01-27T11:28:43.743Z,8.4
2018-01-27T11:29:43.985Z,8.34
2018-01-27T11:30:44.024Z,8.38
2018-01-27T11:31:44.026Z,8.41
2018-01-27T11:32:44.061Z,8.33
2018-01-27T11:33:44.051Z,8.23
2018-01-27T11:34:44.090Z,8.23
2018-01-27T11:35:44.207Z,8.2
2018-01-27T11:36:44.028Z,8.26
2018-01-27T11:37:44.151Z,8.23
2018-01-27T11:38:44.211Z,8.1
2018-01-27T11:39:44.187Z,8.02
2018-01-27T11:40:44.203Z,8.07
2018-01-27T11:41:44.113Z,8.07
2018-01-27T11:42:43.970Z,8.11
2018-01-27T11:43:44.265Z,8.16
2018-01-27T11:44:44.266Z,8.1
2018-01-27T11:45:44.390Z,8.12
2018-01-27T11:46:44.462Z,8.23
2018-01-27T11:47:44.304Z,8.18
2018-01-27T11:48:44.086Z,8.18
2018-01-27T11:49:44.088Z,8.15
2018-01-27T11:50:44.519Z,8.01
2018-01-27T11:51:44.533Z,8.02
2018-01-27T11:52:59.080Z,8.07
2018-01-27T11:53:44.584Z,8.12
2018-01-27T11:54:44.458Z,8.08
2018-01-27T11:55:44.319Z,8.04
2018-01-27T11:56:59.149Z,8.02
2018-01-27T11:57:44.504Z,8.01
2018-01-27T11:58:44.664Z,8.05
2018-01-27T11:59:59.233Z,8
2018-01-27T12:01:44.565Z,7.86
2018-01-27T12:02:59.006Z,7.9
2018-01-27T12:03:44.520Z,8.01
2018-01-27T12:04:44.632Z,8
2018-01-27T12:05:59.463Z,7.89
2018-01-27T12:06:44.674Z,7.98
2018-01-27T12:07:44.428Z,8.01
2018-01-27T12:08:44.606Z,7.97
2018-01-27T12:09:44.213Z,7.83
2018-01-27T12:10:59.411Z,8.04
2018-01-27T12:11:44.748Z,8.08
2018-01-27T12:12:44.275Z,8.11
2018-01-27T12:13:44.791Z,8.05
2018-01-27T12:15:59.497Z,8.16
2018-01-27T12:16:44.575Z,8.12
2018-01-27T12:17:44.853Z,8.19
2018-01-27T12:18:44.900Z,8.25
2018-01-27T12:19:44.888Z,8.22
2018-01-27T12:20:44.904Z,8.25
2018-01-27T12:22:44.941Z,8.07
2018-01-27T12:23:44.972Z,8
2018-01-27T12:24:45.180Z,8.07
2018-01-27T12:25:45.011Z,8.1
2018-01-27T12:26:45.028Z,8.16
2018-01-27T12:27:44.789Z,8.08
2018-01-27T12:28:45.068Z,8.08
2018-01-27T12:29:44.991Z,8.1
2018-01-27T12:30:45.102Z,8.26
2018-01-27T12:31:59.942Z,8.23
2018-01-27T12:32:45.130Z,8.29
2018-01-27T12:33:45.288Z,8.19
2018-01-27T12:34:45.159Z,8.2
2018-01-27T12:35:45.316Z,8.22
2018-01-27T12:36:45.197Z,8.28
2018-01-27T12:37:45.210Z,8.28
2018-01-27T12:38:45.225Z,8.22
2018-01-27T12:39:45.258Z,8.25
2018-01-27T12:40:59.838Z,8.05
2018-01-27T12:41:45.290Z,8.08
2018-01-27T12:42:45.053Z,8.26
2018-01-27T12:44:45.072Z,8.25
2018-01-27T12:45:45.363Z,8.25
2018-01-27T12:46:45.541Z,8.22
2018-01-27T12:48:00.079Z,8.16
2018-01-27T12:48:45.430Z,8.26
2018-01-27T12:49:45.198Z,8.29
2018-01-27T12:50:45.583Z,8.23
2018-01-27T12:51:45.626Z,8.29
2018-01-27T12:52:45.644Z,8.2
2018-01-27T12:53:45.508Z,8.34
2018-01-27T12:54:45.550Z,8.22
2018-01-27T12:55:45.543Z,8.23
2018-01-27T12:56:45.711Z,8.36
2018-01-27T12:57:45.322Z,8.34
2018-01-27T12:58:45.573Z,8.36
2018-01-27T12:59:45.623Z,8.34
2018-01-27T13:00:45.359Z,8.2
2018-01-27T13:01:45.792Z,8.36
2018-01-27T13:03:00.347Z,8.45
2018-01-27T13:03:45.429Z,8.38
2018-01-27T13:04:45.710Z,8.38
2018-01-27T13:05:45.720Z,8.44
2018-01-27T13:06:45.745Z,8.33
2018-01-27T13:07:45.801Z,8.41
2018-01-27T13:08:45.515Z,8.4
2018-01-27T13:10:00.480Z,8.38
2018-01-27T13:10:46.008Z,8.5
2018-01-27T13:11:45.843Z,8.48
2018-01-27T13:12:45.862Z,8.5
2018-01-27T13:14:00.541Z,8.59
2018-01-27T13:14:46.020Z,8.68
2018-01-27T13:15:46.051Z,8.74
2018-01-27T13:16:45.913Z,8.81
2018-01-27T13:17:45.793Z,8.77
2018-01-27T13:18:45.955Z,8.84
2018-01-27T13:21:00.669Z,8.81
2018-01-27T13:21:45.750Z,8.87
2018-01-27T13:22:45.674Z,8.91
2018-01-27T13:24:00.815Z,8.94
2018-01-27T13:24:45.812Z,9.01
2018-01-27T13:25:46.101Z,9.14
2018-01-27T13:26:46.258Z,9.17
2018-01-27T13:27:46.252Z,8.95
2018-01-27T13:28:45.892Z,8.95
2018-01-27T13:29:45.659Z,8.94
2018-01-27T13:30:46.184Z,8.98
2018-01-27T13:31:46.182Z,8.98
2018-01-27T13:32:46.061Z,8.89
2018-01-27T13:33:46.232Z,8.81
2018-01-27T13:35:46.282Z,8.83
2018-01-27T13:36:46.278Z,8.84
2018-01-27T13:37:46.158Z,8.89
2018-01-27T13:38:46.321Z,8.95
2018-01-27T13:39:46.349Z,8.84
2018-01-27T13:40:46.476Z,8.74
2018-01-27T13:42:01.048Z,8.89
2018-01-27T13:42:46.398Z,8.83
2018-01-27T13:43:46.413Z,8.8
2018-01-27T13:44:46.335Z,8.79
2018-01-27T13:46:01.134Z,8.77
2018-01-27T13:46:46.583Z,8.77
2018-01-27T13:47:46.239Z,8.66
2018-01-27T13:48:46.516Z,8.7
2018-01-27T13:49:46.680Z,8.65
2018-01-27T13:51:01.216Z,8.66
2018-01-27T13:51:46.658Z,8.74
2018-01-27T13:52:46.334Z,8.79
2018-01-27T13:53:46.609Z,8.81
2018-01-27T13:54:46.617Z,8.81
2018-01-27T13:55:46.637Z,8.84
2018-01-27T13:56:46.753Z,8.84
2018-01-27T13:57:46.578Z,8.91
2018-01-27T13:58:46.699Z,8.8
2018-01-27T13:59:46.851Z,8.81
2018-01-27T14:00:46.730Z,8.79
2018-01-27T14:01:46.730Z,8.83
2018-01-27T14:02:46.674Z,8.81